sensor_id;sensor_type;location;lat;lon;timestamp;pressure;altitude;pressure_sealevel;temperature;humidity
36598;BME280;22607;49.550;11.940;2023-04-22T00:01:12;96390.84;;;10.34;86.88
36598;BME280;22607;49.550;11.940;2023-04-22T00:03:42;96391.84;;;10.33;88.00
36598;BME280;22607;49.550;11.940;2023-04-22T00:06:10;96392.69;;;10.33;88.35
36598;BME280;22607;49.550;11.940;2023-04-22T00:08:36;96398.47;;;10.14;90.68
36598;BME280;22607;49.550;11.940;2023-04-22T00:11:03;96396.72;;;10.06;90.94
36598;BME280;22607;49.550;11.940;2023-04-22T00:13:29;96400.44;;;9.96;92.86
36598;BME280;22607;49.550;11.940;2023-04-22T00:15:56;96410.03;;;9.89;94.89
36598;BME280;22607;49.550;11.940;2023-04-22T00:18:22;96411.38;;;9.85;95.60
36598;BME280;22607;49.550;11.940;2023-04-22T00:20:49;96413.16;;;9.84;93.95
36598;BME280;22607;49.550;11.940;2023-04-22T00:23:16;96410.38;;;9.86;93.44
36598;BME280;22607;49.550;11.940;2023-04-22T00:25:42;96405.59;;;10.05;91.13
36598;BME280;22607;49.550;11.940;2023-04-22T00:28:11;96401.69;;;10.01;91.47
36598;BME280;22607;49.550;11.940;2023-04-22T00:30:37;96407.06;;;9.92;91.49
36598;BME280;22607;49.550;11.940;2023-04-22T00:35:35;96410.38;;;9.86;91.75
36598;BME280;22607;49.550;11.940;2023-04-22T00:38:02;96415.63;;;9.86;90.90
36598;BME280;22607;49.550;11.940;2023-04-22T00:40:28;96407.47;;;9.81;91.88
36598;BME280;22607;49.550;11.940;2023-04-22T00:42:55;96406.47;;;9.82;91.57
36598;BME280;22607;49.550;11.940;2023-04-22T00:45:22;96416.34;;;9.80;91.34
36598;BME280;22607;49.550;11.940;2023-04-22T00:47:48;96410.91;;;9.81;92.27
36598;BME280;22607;49.550;11.940;2023-04-22T00:50:21;96408.28;;;9.81;91.49
36598;BME280;22607;49.550;11.940;2023-04-22T00:52:47;96408.81;;;9.77;92.78
36598;BME280;22607;49.550;11.940;2023-04-22T00:55:14;96410.53;;;9.69;92.69
36598;BME280;22607;49.550;11.940;2023-04-22T00:57:41;96406.97;;;9.62;94.20
36598;BME280;22607;49.550;11.940;2023-04-22T01:00:07;96417.81;;;9.59;95.78
36598;BME280;22607;49.550;11.940;2023-04-22T01:02:37;96416.94;;;9.43;98.25
36598;BME280;22607;49.550;11.940;2023-04-22T01:05:04;96417.03;;;9.27;100.00
36598;BME280;22607;49.550;11.940;2023-04-22T01:07:33;96426.91;;;9.25;100.00
36598;BME280;22607;49.550;11.940;2023-04-22T01:09:59;96426.31;;;9.14;100.00
36598;BME280;22607;49.550;11.940;2023-04-22T01:12:26;96426.66;;;9.11;100.00
36598;BME280;22607;49.550;11.940;2023-04-22T01:14:53;96427.34;;;9.28;100.00
36598;BME280;22607;49.550;11.940;2023-04-22T01:17:21;96430.38;;;9.40;100.00
36598;BME280;22607;49.550;11.940;2023-04-22T01:19:50;96425.84;;;9.34;100.00
36598;BME280;22607;49.550;11.940;2023-04-22T01:22:18;96425.31;;;9.15;100.00
36598;BME280;22607;49.550;11.940;2023-04-22T01:24:46;96423.03;;;9.12;100.00
36598;BME280;22607;49.550;11.940;2023-04-22T01:27:12;96424.00;;;8.88;100.00
36598;BME280;22607;49.550;11.940;2023-04-22T01:29:39;96427.50;;;9.03;100.00
36598;BME280;22607;49.550;11.940;2023-04-22T01:32:06;96429.19;;;8.96;100.00
36598;BME280;22607;49.550;11.940;2023-04-22T01:34:32;96435.88;;;8.99;100.00
36598;BME280;22607;49.550;11.940;2023-04-22T01:36:59;96438.59;;;8.82;100.00
36598;BME280;22607;49.550;11.940;2023-04-22T01:39:26;96433.97;;;8.84;100.00
36598;BME280;22607;49.550;11.940;2023-04-22T01:41:54;96436.22;;;8.64;100.00
36598;BME280;22607;49.550;11.940;2023-04-22T01:44:21;96438.53;;;8.50;100.00
36598;BME280;22607;49.550;11.940;2023-04-22T01:46:49;96441.00;;;8.44;100.00
36598;BME280;22607;49.550;11.940;2023-04-22T01:49:16;96438.22;;;8.45;100.00
36598;BME280;22607;49.550;11.940;2023-04-22T01:51:42;96436.41;;;8.37;100.00
36598;BME280;22607;49.550;11.940;2023-04-22T01:54:09;96447.75;;;8.21;100.00
36598;BME280;22607;49.550;11.940;2023-04-22T01:56:35;96445.72;;;8.40;100.00
36598;BME280;22607;49.550;11.940;2023-04-22T01:59:08;96440.19;;;8.35;100.00
36598;BME280;22607;49.550;11.940;2023-04-22T02:01:34;96445.25;;;8.36;100.00
36598;BME280;22607;49.550;11.940;2023-04-22T02:04:01;96441.66;;;8.54;100.00
36598;BME280;22607;49.550;11.940;2023-04-22T02:06:27;96444.25;;;8.46;100.00
36598;BME280;22607;49.550;11.940;2023-04-22T02:08:53;96437.38;;;8.45;100.00
36598;BME280;22607;49.550;11.940;2023-04-22T02:11:21;96433.47;;;8.49;100.00
36598;BME280;22607;49.550;11.940;2023-04-22T02:13:48;96434.09;;;8.51;100.00
36598;BME280;22607;49.550;11.940;2023-04-22T02:16:16;96434.81;;;8.28;100.00
36598;BME280;22607;49.550;11.940;2023-04-22T02:18:42;96426.34;;;8.18;100.00
36598;BME280;22607;49.550;11.940;2023-04-22T02:21:09;96434.81;;;8.28;100.00
36598;BME280;22607;49.550;11.940;2023-04-22T02:23:36;96440.41;;;8.25;100.00
36598;BME280;22607;49.550;11.940;2023-04-22T02:26:04;96429.44;;;8.21;100.00
36598;BME280;22607;49.550;11.940;2023-04-22T02:28:30;96431.25;;;8.04;100.00
36598;BME280;22607;49.550;11.940;2023-04-22T02:30:57;96424.56;;;7.93;100.00
36598;BME280;22607;49.550;11.940;2023-04-22T02:33:24;96435.22;;;7.83;100.00
36598;BME280;22607;49.550;11.940;2023-04-22T02:35:51;96432.75;;;7.65;100.00
36598;BME280;22607;49.550;11.940;2023-04-22T02:40:48;96440.09;;;7.53;100.00
36598;BME280;22607;49.550;11.940;2023-04-22T02:43:14;96442.56;;;7.55;100.00
36598;BME280;22607;49.550;11.940;2023-04-22T02:45:40;96441.38;;;7.24;100.00
36598;BME280;22607;49.550;11.940;2023-04-22T02:48:07;96445.00;;;7.48;100.00
36598;BME280;22607;49.550;11.940;2023-04-22T02:50:33;96443.69;;;7.52;100.00
36598;BME280;22607;49.550;11.940;2023-04-22T02:53:00;96436.84;;;7.51;100.00
36598;BME280;22607;49.550;11.940;2023-04-22T02:55:27;96433.41;;;7.51;100.00
36598;BME280;22607;49.550;11.940;2023-04-22T02:57:53;96428.34;;;7.41;100.00
36598;BME280;22607;49.550;11.940;2023-04-22T03:00:19;96427.38;;;7.42;100.00
36598;BME280;22607;49.550;11.940;2023-04-22T03:03:01;96430.13;;;7.40;100.00
36598;BME280;22607;49.550;11.940;2023-04-22T03:05:28;96424.09;;;7.31;100.00
36598;BME280;22607;49.550;11.940;2023-04-22T03:07:54;96435.19;;;7.25;100.00
36598;BME280;22607;49.550;11.940;2023-04-22T03:10:21;96435.19;;;7.33;100.00
36598;BME280;22607;49.550;11.940;2023-04-22T03:12:48;96436.03;;;7.34;100.00
36598;BME280;22607;49.550;11.940;2023-04-22T03:15:14;96428.50;;;7.39;100.00
36598;BME280;22607;49.550;11.940;2023-04-22T03:17:43;96426.22;;;7.44;100.00
36598;BME280;22607;49.550;11.940;2023-04-22T03:20:09;96426.69;;;7.40;100.00
36598;BME280;22607;49.550;11.940;2023-04-22T03:22:36;96423.28;;;7.39;100.00
36598;BME280;22607;49.550;11.940;2023-04-22T03:25:03;96418.22;;;7.38;100.00
36598;BME280;22607;49.550;11.940;2023-04-22T03:29:59;96412.00;;;7.39;100.00
36598;BME280;22607;49.550;11.940;2023-04-22T03:32:25;96417.88;;;7.24;100.00
36598;BME280;22607;49.550;11.940;2023-04-22T03:34:52;96415.75;;;7.11;100.00
36598;BME280;22607;49.550;11.940;2023-04-22T03:37:18;96418.00;;;7.14;100.00
36598;BME280;22607;49.550;11.940;2023-04-22T03:39:45;96422.59;;;7.12;100.00
36598;BME280;22607;49.550;11.940;2023-04-22T03:42:12;96423.88;;;6.91;100.00
36598;BME280;22607;49.550;11.940;2023-04-22T03:44:39;96426.13;;;6.94;100.00
36598;BME280;22607;49.550;11.940;2023-04-22T03:47:05;96422.38;;;6.97;100.00
36598;BME280;22607;49.550;11.940;2023-04-22T03:49:32;96416.53;;;6.95;100.00
36598;BME280;22607;49.550;11.940;2023-04-22T03:51:59;96422.22;;;6.90;100.00
36598;BME280;22607;49.550;11.940;2023-04-22T03:54:25;96419.69;;;6.64;100.00
36598;BME280;22607;49.550;11.940;2023-04-22T03:56:51;96418.44;;;6.76;100.00
36598;BME280;22607;49.550;11.940;2023-04-22T03:59:18;96429.13;;;6.56;100.00
36598;BME280;22607;49.550;11.940;2023-04-22T04:01:47;96423.66;;;6.76;100.00
36598;BME280;22607;49.550;11.940;2023-04-22T04:04:13;96427.84;;;6.69;100.00
36598;BME280;22607;49.550;11.940;2023-04-22T04:06:40;96430.94;;;6.64;100.00
36598;BME280;22607;49.550;11.940;2023-04-22T04:09:07;96425.88;;;6.63;100.00
36598;BME280;22607;49.550;11.940;2023-04-22T04:11:35;96428.16;;;6.57;100.00
36598;BME280;22607;49.550;11.940;2023-04-22T04:14:01;96431.75;;;6.56;100.00
36598;BME280;22607;49.550;11.940;2023-04-22T04:16:35;96436.66;;;6.68;100.00
36598;BME280;22607;49.550;11.940;2023-04-22T04:19:02;96429.50;;;6.70;100.00
36598;BME280;22607;49.550;11.940;2023-04-22T04:21:29;96433.03;;;6.61;100.00
36598;BME280;22607;49.550;11.940;2023-04-22T04:23:58;96434.59;;;6.45;100.00
36598;BME280;22607;49.550;11.940;2023-04-22T04:26:35;96435.38;;;6.72;100.00
36598;BME280;22607;49.550;11.940;2023-04-22T04:29:03;96437.66;;;6.67;100.00
36598;BME280;22607;49.550;11.940;2023-04-22T04:31:30;96437.66;;;6.67;100.00
36598;BME280;22607;49.550;11.940;2023-04-22T04:33:57;96437.69;;;6.83;100.00
36598;BME280;22607;49.550;11.940;2023-04-22T04:36:24;96442.78;;;6.93;100.00
36598;BME280;22607;49.550;11.940;2023-04-22T04:38:54;96433.31;;;6.92;100.00
36598;BME280;22607;49.550;11.940;2023-04-22T04:41:21;96434.78;;;6.87;100.00
36598;BME280;22607;49.550;11.940;2023-04-22T04:43:48;96445.50;;;6.75;100.00
36598;BME280;22607;49.550;11.940;2023-04-22T04:46:15;96440.25;;;6.67;100.00
36598;BME280;22607;49.550;11.940;2023-04-22T04:48:47;96441.63;;;6.88;100.00
36598;BME280;22607;49.550;11.940;2023-04-22T04:51:16;96446.84;;;6.88;100.00
36598;BME280;22607;49.550;11.940;2023-04-22T04:53:45;96449.75;;;6.76;100.00
36598;BME280;22607;49.550;11.940;2023-04-22T04:56:12;96443.00;;;7.08;100.00
36598;BME280;22607;49.550;11.940;2023-04-22T04:58:38;96445.59;;;7.08;100.00
36598;BME280;22607;49.550;11.940;2023-04-22T05:01:05;96442.69;;;7.28;100.00
36598;BME280;22607;49.550;11.940;2023-04-22T05:03:31;96443.72;;;7.69;100.00
36598;BME280;22607;49.550;11.940;2023-04-22T05:05:58;96439.06;;;8.29;100.00
36598;BME280;22607;49.550;11.940;2023-04-22T05:08:24;96436.25;;;9.51;100.00
36598;BME280;22607;49.550;11.940;2023-04-22T05:10:51;96432.28;;;9.93;92.18
36598;BME280;22607;49.550;11.940;2023-04-22T05:13:21;96432.94;;;10.10;90.91
36598;BME280;22607;49.550;11.940;2023-04-22T05:15:47;96434.91;;;10.47;87.97
36598;BME280;22607;49.550;11.940;2023-04-22T05:18:14;96433.53;;;11.62;78.68
36598;BME280;22607;49.550;11.940;2023-04-22T05:20:40;96434.50;;;12.04;75.54
36598;BME280;22607;49.550;11.940;2023-04-22T05:23:07;96423.72;;;12.63;70.44
36598;BME280;22607;49.550;11.940;2023-04-22T05:25:33;96425.75;;;12.26;69.83
36598;BME280;22607;49.550;11.940;2023-04-22T05:28:00;96420.47;;;11.97;71.93
36598;BME280;22607;49.550;11.940;2023-04-22T05:30:26;96418.47;;;11.99;73.30
36598;BME280;22607;49.550;11.940;2023-04-22T05:32:53;96420.81;;;12.16;71.86
36598;BME280;22607;49.550;11.940;2023-04-22T05:35:20;96426.50;;;12.13;72.60
36598;BME280;22607;49.550;11.940;2023-04-22T05:37:48;96415.72;;;12.43;70.73
36598;BME280;22607;49.550;11.940;2023-04-22T05:40:14;96429.75;;;12.50;68.97
36598;BME280;22607;49.550;11.940;2023-04-22T05:42:41;96435.41;;;12.12;71.75
36598;BME280;22607;49.550;11.940;2023-04-22T05:45:07;96438.50;;;13.06;67.75
36598;BME280;22607;49.550;11.940;2023-04-22T05:47:34;96426.88;;;13.49;66.01
36598;BME280;22607;49.550;11.940;2023-04-22T05:50:00;96432.38;;;14.09;63.16
36598;BME280;22607;49.550;11.940;2023-04-22T05:52:27;96428.81;;;14.62;61.37
36598;BME280;22607;49.550;11.940;2023-04-22T05:54:59;96427.78;;;14.70;61.35
36598;BME280;22607;49.550;11.940;2023-04-22T05:57:26;96422.19;;;15.44;57.98
36598;BME280;22607;49.550;11.940;2023-04-22T05:59:52;96423.38;;;15.09;58.70
36598;BME280;22607;49.550;11.940;2023-04-22T06:02:19;96424.22;;;15.42;57.44
36598;BME280;22607;49.550;11.940;2023-04-22T06:04:46;96424.28;;;15.29;55.87
36598;BME280;22607;49.550;11.940;2023-04-22T06:07:16;96423.00;;;15.38;56.33
36598;BME280;22607;49.550;11.940;2023-04-22T06:09:43;96433.47;;;15.26;55.35
36598;BME280;22607;49.550;11.940;2023-04-22T06:12:09;96428.31;;;15.38;56.40
36598;BME280;22607;49.550;11.940;2023-04-22T06:14:36;96431.91;;;15.12;56.21
36598;BME280;22607;49.550;11.940;2023-04-22T06:17:02;96435.56;;;15.17;55.21
36598;BME280;22607;49.550;11.940;2023-04-22T06:19:30;96432.41;;;15.66;54.85
36598;BME280;22607;49.550;11.940;2023-04-22T06:22:04;96422.25;;;15.95;54.07
36598;BME280;22607;49.550;11.940;2023-04-22T06:24:30;96427.91;;;16.43;52.59
36598;BME280;22607;49.550;11.940;2023-04-22T06:26:56;96430.34;;;16.82;51.88
36598;BME280;22607;49.550;11.940;2023-04-22T06:29:23;96429.19;;;16.78;52.23
36598;BME280;22607;49.550;11.940;2023-04-22T06:31:50;96436.16;;;16.53;53.28
36598;BME280;22607;49.550;11.940;2023-04-22T06:34:24;96432.63;;;16.60;52.22
36598;BME280;22607;49.550;11.940;2023-04-22T06:36:51;96433.50;;;16.53;51.08
36598;BME280;22607;49.550;11.940;2023-04-22T06:39:20;96437.25;;;16.27;52.29
36598;BME280;22607;49.550;11.940;2023-04-22T06:41:46;96443.38;;;16.27;53.01
36598;BME280;22607;49.550;11.940;2023-04-22T06:44:14;96438.03;;;16.53;52.42
36598;BME280;22607;49.550;11.940;2023-04-22T06:46:40;96442.81;;;16.19;52.58
36598;BME280;22607;49.550;11.940;2023-04-22T06:49:07;96441.28;;;16.30;52.35
36598;BME280;22607;49.550;11.940;2023-04-22T06:51:33;96443.06;;;16.36;52.77
36598;BME280;22607;49.550;11.940;2023-04-22T06:54:00;96441.78;;;15.94;53.49
36598;BME280;22607;49.550;11.940;2023-04-22T06:56:26;96443.44;;;15.88;53.72
36598;BME280;22607;49.550;11.940;2023-04-22T06:58:53;96442.44;;;16.15;54.01
36598;BME280;22607;49.550;11.940;2023-04-22T07:01:20;96443.38;;;16.46;52.69
36598;BME280;22607;49.550;11.940;2023-04-22T07:03:47;96444.69;;;16.37;53.65
36598;BME280;22607;49.550;11.940;2023-04-22T07:06:15;96443.75;;;16.50;52.21
36598;BME280;22607;49.550;11.940;2023-04-22T07:08:42;96445.38;;;16.88;50.40
36598;BME280;22607;49.550;11.940;2023-04-22T07:11:08;96450.09;;;17.24;49.91
36598;BME280;22607;49.550;11.940;2023-04-22T07:13:38;96444.34;;;17.08;49.46
36598;BME280;22607;49.550;11.940;2023-04-22T07:16:05;96445.00;;;17.22;49.63
36598;BME280;22607;49.550;11.940;2023-04-22T07:18:41;96447.31;;;17.61;48.50
36598;BME280;22607;49.550;11.940;2023-04-22T07:21:08;96433.84;;;17.75;48.63
36598;BME280;22607;49.550;11.940;2023-04-22T07:23:35;96434.34;;;17.95;48.45
36598;BME280;22607;49.550;11.940;2023-04-22T07:26:01;96427.91;;;18.15;47.80
36598;BME280;22607;49.550;11.940;2023-04-22T07:28:30;96425.34;;;18.32;47.01
36598;BME280;22607;49.550;11.940;2023-04-22T07:30:57;96420.25;;;18.67;46.45
36598;BME280;22607;49.550;11.940;2023-04-22T07:33:23;96420.31;;;18.84;47.25
36598;BME280;22607;49.550;11.940;2023-04-22T07:35:51;96420.72;;;19.05;45.97
36598;BME280;22607;49.550;11.940;2023-04-22T07:38:23;96417.47;;;19.14;45.58
36598;BME280;22607;49.550;11.940;2023-04-22T07:40:51;96422.19;;;19.24;45.30
36598;BME280;22607;49.550;11.940;2023-04-22T07:43:17;96419.25;;;19.26;44.69
36598;BME280;22607;49.550;11.940;2023-04-22T07:45:43;96416.91;;;19.12;46.03
36598;BME280;22607;49.550;11.940;2023-04-22T07:48:10;96409.09;;;19.23;45.48
36598;BME280;22607;49.550;11.940;2023-04-22T07:50:55;96408.41;;;19.45;45.36
36598;BME280;22607;49.550;11.940;2023-04-22T07:53:23;96410.91;;;19.51;44.71
36598;BME280;22607;49.550;11.940;2023-04-22T07:55:49;96414.06;;;19.31;45.83
36598;BME280;22607;49.550;11.940;2023-04-22T07:58:18;96400.00;;;18.66;46.00
36598;BME280;22607;49.550;11.940;2023-04-22T08:00:46;96406.44;;;19.23;46.37
36598;BME280;22607;49.550;11.940;2023-04-22T08:03:13;96398.84;;;19.14;45.72
36598;BME280;22607;49.550;11.940;2023-04-22T08:05:40;96399.00;;;19.25;46.34
36598;BME280;22607;49.550;11.940;2023-04-22T08:08:06;96398.28;;;19.12;45.44
36598;BME280;22607;49.550;11.940;2023-04-22T08:10:33;96398.03;;;19.60;45.15
36598;BME280;22607;49.550;11.940;2023-04-22T08:12:59;96393.59;;;19.66;45.08
36598;BME280;22607;49.550;11.940;2023-04-22T08:15:27;96396.38;;;19.42;44.79
36598;BME280;22607;49.550;11.940;2023-04-22T08:17:55;96397.13;;;19.37;44.91
36598;BME280;22607;49.550;11.940;2023-04-22T08:20:22;96403.91;;;19.45;45.05
36598;BME280;22607;49.550;11.940;2023-04-22T08:22:48;96394.06;;;19.97;44.40
36598;BME280;22607;49.550;11.940;2023-04-22T08:25:16;96382.75;;;20.24;43.96
36598;BME280;22607;49.550;11.940;2023-04-22T08:27:43;96390.66;;;20.58;43.19
36598;BME280;22607;49.550;11.940;2023-04-22T08:30:09;96387.97;;;20.36;43.15
36598;BME280;22607;49.550;11.940;2023-04-22T08:32:36;96382.72;;;20.86;43.15
36598;BME280;22607;49.550;11.940;2023-04-22T08:35:02;96382.47;;;21.10;42.92
36598;BME280;22607;49.550;11.940;2023-04-22T08:37:30;96393.16;;;21.10;43.38
36598;BME280;22607;49.550;11.940;2023-04-22T08:39:57;96386.31;;;21.19;42.57
36598;BME280;22607;49.550;11.940;2023-04-22T08:42:27;96391.00;;;20.62;44.98
36598;BME280;22607;49.550;11.940;2023-04-22T08:44:53;96390.53;;;20.70;41.79
36598;BME280;22607;49.550;11.940;2023-04-22T08:47:20;96391.00;;;20.23;41.81
36598;BME280;22607;49.550;11.940;2023-04-22T08:49:46;96386.84;;;20.32;40.76
36598;BME280;22607;49.550;11.940;2023-04-22T08:52:14;96387.13;;;20.13;41.17
36598;BME280;22607;49.550;11.940;2023-04-22T08:54:41;96387.00;;;19.68;42.69
36598;BME280;22607;49.550;11.940;2023-04-22T08:57:08;96385.44;;;19.90;42.12
36598;BME280;22607;49.550;11.940;2023-04-22T08:59:36;96383.09;;;19.93;41.74
36598;BME280;22607;49.550;11.940;2023-04-22T09:02:04;96377.13;;;19.86;41.52
36598;BME280;22607;49.550;11.940;2023-04-22T09:04:32;96385.50;;;19.61;42.01
36598;BME280;22607;49.550;11.940;2023-04-22T09:06:59;96393.75;;;19.59;42.74
36598;BME280;22607;49.550;11.940;2023-04-22T09:09:28;96388.34;;;19.71;41.82
36598;BME280;22607;49.550;11.940;2023-04-22T09:11:56;96395.53;;;19.71;42.78
36598;BME280;22607;49.550;11.940;2023-04-22T09:14:23;96390.59;;;19.62;43.07
36598;BME280;22607;49.550;11.940;2023-04-22T09:16:49;96382.22;;;20.05;42.51
36598;BME280;22607;49.550;11.940;2023-04-22T09:21:47;96389.47;;;20.49;41.32
36598;BME280;22607;49.550;11.940;2023-04-22T09:27:15;96380.13;;;20.46;42.80
36598;BME280;22607;49.550;11.940;2023-04-22T09:29:47;96381.75;;;20.48;42.51
36598;BME280;22607;49.550;11.940;2023-04-22T09:32:15;96379.13;;;20.75;42.21
36598;BME280;22607;49.550;11.940;2023-04-22T09:34:50;96384.53;;;21.03;40.78
36598;BME280;22607;49.550;11.940;2023-04-22T09:37:25;96381.75;;;21.20;41.66
36598;BME280;22607;49.550;11.940;2023-04-22T09:40:04;96374.47;;;21.70;39.21
36598;BME280;22607;49.550;11.940;2023-04-22T09:42:32;96371.94;;;21.86;39.61
36598;BME280;22607;49.550;11.940;2023-04-22T09:45:12;96366.03;;;21.79;38.36
36598;BME280;22607;49.550;11.940;2023-04-22T09:47:40;96369.00;;;21.55;38.63
36598;BME280;22607;49.550;11.940;2023-04-22T09:50:06;96373.47;;;21.76;38.83
36598;BME280;22607;49.550;11.940;2023-04-22T09:52:33;96369.28;;;21.86;38.71
36598;BME280;22607;49.550;11.940;2023-04-22T09:54:59;96362.63;;;21.56;38.72
36598;BME280;22607;49.550;11.940;2023-04-22T09:57:32;96369.97;;;21.43;40.94
36598;BME280;22607;49.550;11.940;2023-04-22T09:59:58;96355.84;;;21.75;40.10
36598;BME280;22607;49.550;11.940;2023-04-22T10:02:31;96360.91;;;21.72;40.94
36598;BME280;22607;49.550;11.940;2023-04-22T10:04:58;96355.25;;;22.11;40.61
36598;BME280;22607;49.550;11.940;2023-04-22T10:07:25;96354.44;;;22.11;39.64
36598;BME280;22607;49.550;11.940;2023-04-22T10:09:57;96357.47;;;22.25;39.49
36598;BME280;22607;49.550;11.940;2023-04-22T10:12:23;96348.38;;;22.26;40.07
36598;BME280;22607;49.550;11.940;2023-04-22T10:15:01;96351.91;;;22.37;39.44
36598;BME280;22607;49.550;11.940;2023-04-22T10:17:35;96346.59;;;22.42;38.56
36598;BME280;22607;49.550;11.940;2023-04-22T10:20:03;96342.84;;;22.43;39.33
36598;BME280;22607;49.550;11.940;2023-04-22T10:22:33;96341.81;;;22.49;39.20
36598;BME280;22607;49.550;11.940;2023-04-22T10:25:00;96350.00;;;22.27;39.64
36598;BME280;22607;49.550;11.940;2023-04-22T10:27:26;96336.97;;;22.46;38.97
36598;BME280;22607;49.550;11.940;2023-04-22T10:29:54;96342.34;;;22.46;39.60
36598;BME280;22607;49.550;11.940;2023-04-22T10:34:49;96336.78;;;22.05;40.52
36598;BME280;22607;49.550;11.940;2023-04-22T10:37:19;96333.28;;;22.58;41.70
36598;BME280;22607;49.550;11.940;2023-04-22T10:42:34;96329.13;;;22.93;39.23
36598;BME280;22607;49.550;11.940;2023-04-22T10:45:01;96322.69;;;22.94;38.49
36598;BME280;22607;49.550;11.940;2023-04-22T10:47:30;96329.38;;;22.76;38.98
36598;BME280;22607;49.550;11.940;2023-04-22T10:52:39;96318.13;;;22.79;37.79
36598;BME280;22607;49.550;11.940;2023-04-22T10:55:05;96318.22;;;23.26;38.20
36598;BME280;22607;49.550;11.940;2023-04-22T10:57:33;96323.84;;;23.29;37.67
36598;BME280;22607;49.550;11.940;2023-04-22T11:00:16;96314.97;;;22.98;38.55
36598;BME280;22607;49.550;11.940;2023-04-22T11:02:44;96317.66;;;23.13;37.44
36598;BME280;22607;49.550;11.940;2023-04-22T11:05:18;96306.41;;;23.32;35.61
36598;BME280;22607;49.550;11.940;2023-04-22T11:07:48;96310.66;;;23.02;38.03
36598;BME280;22607;49.550;11.940;2023-04-22T11:13:01;96304.41;;;22.60;37.51
36598;BME280;22607;49.550;11.940;2023-04-22T11:15:35;96307.94;;;22.65;34.70
36598;BME280;22607;49.550;11.940;2023-04-22T11:18:07;96304.94;;;22.62;35.68
36598;BME280;22607;49.550;11.940;2023-04-22T11:20:33;96293.75;;;22.80;32.76
36598;BME280;22607;49.550;11.940;2023-04-22T11:23:01;96298.06;;;22.87;34.10
36598;BME280;22607;49.550;11.940;2023-04-22T11:25:30;96295.63;;;22.75;34.21
36598;BME280;22607;49.550;11.940;2023-04-22T11:27:56;96298.91;;;22.98;33.98
36598;BME280;22607;49.550;11.940;2023-04-22T11:30:24;96294.38;;;23.14;32.63
36598;BME280;22607;49.550;11.940;2023-04-22T11:32:52;96290.56;;;22.99;31.38
36598;BME280;22607;49.550;11.940;2023-04-22T11:35:22;96291.66;;;22.98;33.76
36598;BME280;22607;49.550;11.940;2023-04-22T11:37:59;96283.09;;;23.12;31.65
36598;BME280;22607;49.550;11.940;2023-04-22T11:40:30;96285.69;;;22.65;32.71
36598;BME280;22607;49.550;11.940;2023-04-22T11:43:05;96289.72;;;22.73;33.33
36598;BME280;22607;49.550;11.940;2023-04-22T11:45:33;96277.44;;;22.87;32.02
36598;BME280;22607;49.550;11.940;2023-04-22T11:48:00;96275.06;;;23.06;31.34
36598;BME280;22607;49.550;11.940;2023-04-22T11:50:37;96284.19;;;22.95;32.70
36598;BME280;22607;49.550;11.940;2023-04-22T11:53:16;96283.09;;;22.96;33.16
36598;BME280;22607;49.550;11.940;2023-04-22T11:55:44;96276.09;;;22.69;33.58
36598;BME280;22607;49.550;11.940;2023-04-22T11:58:12;96273.47;;;23.00;31.47
36598;BME280;22607;49.550;11.940;2023-04-22T12:00:40;96268.63;;;23.02;32.33
36598;BME280;22607;49.550;11.940;2023-04-22T12:03:14;96266.53;;;23.41;32.85
36598;BME280;22607;49.550;11.940;2023-04-22T12:05:42;96267.84;;;23.28;31.25
36598;BME280;22607;49.550;11.940;2023-04-22T12:08:15;96277.50;;;23.08;31.53
36598;BME280;22607;49.550;11.940;2023-04-22T12:10:43;96275.06;;;23.06;34.29
36598;BME280;22607;49.550;11.940;2023-04-22T12:13:18;96267.06;;;23.43;32.51
36598;BME280;22607;49.550;11.940;2023-04-22T12:15:46;96263.84;;;23.46;34.53
36598;BME280;22607;49.550;11.940;2023-04-22T12:18:12;96264.13;;;23.44;31.20
36598;BME280;22607;49.550;11.940;2023-04-22T12:20:40;96253.69;;;23.43;33.12
36598;BME280;22607;49.550;11.940;2023-04-22T12:23:14;96258.50;;;23.51;32.68
36598;BME280;22607;49.550;11.940;2023-04-22T12:25:41;96259.56;;;23.34;35.41
36598;BME280;22607;49.550;11.940;2023-04-22T12:28:08;96257.91;;;23.75;35.08
36598;BME280;22607;49.550;11.940;2023-04-22T12:30:42;96251.41;;;23.92;32.34
36598;BME280;22607;49.550;11.940;2023-04-22T12:33:11;96253.03;;;23.88;33.52
36598;BME280;22607;49.550;11.940;2023-04-22T12:35:37;96245.31;;;23.70;31.60
36598;BME280;22607;49.550;11.940;2023-04-22T12:38:04;96245.31;;;23.70;30.97
36598;BME280;22607;49.550;11.940;2023-04-22T12:40:37;96248.81;;;23.55;33.28
36598;BME280;22607;49.550;11.940;2023-04-22T12:43:03;96236.50;;;23.54;32.96
36598;BME280;22607;49.550;11.940;2023-04-22T12:45:31;96239.19;;;23.49;34.42
36598;BME280;22607;49.550;11.940;2023-04-22T12:47:58;96250.44;;;23.15;32.93
36598;BME280;22607;49.550;11.940;2023-04-22T12:50:24;96236.00;;;23.47;31.89
36598;BME280;22607;49.550;11.940;2023-04-22T12:52:52;96235.94;;;23.68;31.88
36598;BME280;22607;49.550;11.940;2023-04-22T12:55:18;96230.06;;;23.55;31.46
36598;BME280;22607;49.550;11.940;2023-04-22T12:57:47;96235.72;;;23.54;31.34
36598;BME280;22607;49.550;11.940;2023-04-22T13:00:14;96235.94;;;23.68;34.43
36598;BME280;22607;49.550;11.940;2023-04-22T13:02:41;96227.09;;;23.57;32.10
36598;BME280;22607;49.550;11.940;2023-04-22T13:05:14;96220.13;;;23.61;34.52
36598;BME280;22607;49.550;11.940;2023-04-22T13:07:42;96215.03;;;23.65;33.71
36598;BME280;22607;49.550;11.940;2023-04-22T13:10:12;96200.56;;;23.66;31.84
36598;BME280;22607;49.550;11.940;2023-04-22T13:12:40;96201.16;;;23.42;32.07
36598;BME280;22607;49.550;11.940;2023-04-22T13:15:07;96206.53;;;22.95;34.32
36598;BME280;22607;49.550;11.940;2023-04-22T13:17:34;96209.22;;;22.95;33.06